Harleyville, SC (29448)

9:57 AM EST on February 08, 2016 (GMT -0500)
Reevesville | | Change Station
CLOSE
Current Station
Personal Weather Station
Location: Reevesville, SC
Elevation: 105 ft
Nearby Weather Stations
Active Advisory: Flood Warning Active Notice: Local Storm Report

Elev 105 ft 33.22 °N, 80.64 °W | Updated 8 seconds ago

Clear
Clear
50.0 °F
Feels Like 50.0 °F
N
0.0
Wind Variable Wind from WNW
Gusts 0.0 mph

Today
High -- | Low -- °F
--% Chance of Precip.
Yesterday
High -- | Low -- °F
Precip. -- in
Pressure 29.90 in
Visibility 10.0 miles
Clouds Clear
Dew Point 22 °F
Humidity 33%
Rainfall 0.00 in
Snow Depth Not available.
7:12 AM 6:00 PM
Waning Crescent, 0% visible
METAR KRBW 081435Z AUTO 24006KT 10SM CLR 09/00 A2990 RMK AO2
Pressure 29.90 in
Visibility 10.0 miles
Clouds Clear
Dew Point 22 °F
Humidity 33%
Rainfall 0.00 in
Snow Depth Not available.
7:12 AM 6:00 PM
Waning Crescent, 0% visible
METAR KRBW 081435Z AUTO 24006KT 10SM CLR 09/00 A2990 RMK AO2

10-Day Weather Forecast

Almanac

Astronomy

Feb. 08, 2016 Rise Set
Actual Time
Civil Twilight
Nautical Twilight
Astronomical Twilight
Moon
Length of Visible Light
Length of Day
Tomorrow will be .
, % of the Moon is Illuminated

Today's Extremes

State Highs State Lows

Community

WunderPhotos

Upload Photos

1,891,437 photos uploaded!

WunderBlog® & News

Nearby

Air Quality

  Air Quality AQ Index Pollutant
Not available.

Snow Depth

Station Depth Elevation

Earthquake Activity

City Distance Mag. Time & Date
Minimum magnitude displayed is 2.5.

Coastal Water Temperatures

Place Temperature

Stations

Nearby Weather Stations

Station Location Temp. Windchill Dew Point Humidity Wind Precip. Elev Updated Type
                   

Watches & Warnings

Flood Warning
Issued: 8:48 PM EST Feb. 7, 2016 – National Weather Service

The Flood Warning continues for
the edisto river near Givhans Ferry.
* At 8 PM Sunday the stage was 12.7 feet.
* Flood stage is 10.0 feet.
* Moderate flooding is occurring.
* Forecast, the river will continue rising to near 13.4 feet by
Tuesday evening. Additional rises may be possible thereafter.
* At 13.0 feet, some homes near the end of happiness Lane are flooded.
Most homes and Cabins along the river between Canadys and Norman
Landing are accessible only by boat.


Lat... Lon 3304 8065 3311 8062 3308 8036 3286 8036
          3286 8045 3302 8044